Terminal Aerodrome Forecast
Issued by NWS Dodge City, KS

Home | Current Version | Previous Version | Text Only | Print | Product List | Glossary On
Versions: 1 2 3 4 5 6 7 8 9 10 11 12 13 14 15 16 17 18 19 20 21 22 23 24 25 26 27 28 29 30 31 32 33 34 35 36 37 38
000
FTUS43 KDDC 060320 AAC
TAFDDC
TAF AMD
KDDC 060320Z 0603/0624 15017G23KT P6SM BKN015
     FM060430 15017KT P6SM VCTS BKN012CB
     FM060630 15017KT P6SM BKN009
     FM061500 18020G30KT P6SM BKN015
     FM061700 18020G30KT P6SM SCT050=

USA.gov is the U.S. government's official web portal to all federal, state and local government web resources and services.